Ana Sayfa
METAR-TAF:

METAR-TAF

Havaalanları :

Lubbock, Teksas, Amerika Birleşik Devletleri

Enlem: 33-40-03N, Boylam: 101-49-17W, yükseklik: 1000 m

Güncel hava durumu gözlemi

Rapor saat 18:53 UTC de 38 dakika önce yapıldı.
Rüzgar güney/güneydoğudan 13 kt
Sıcaklık 33°C
Nem 34%
Basınç 1017 hPa
Görüş mesafesi: 16.1 km
25000 ft yükseklikte az bulutlu

METAR: KLBB 051853Z 15013KT 10SM FEW250 33/15 A3002 RMK AO2 SLP110 T03330150

Saat: 14:31 (19:31 UTC)

Tahmin

Rapor saat 18:59 UTC de 32 dakika önce yapıldı.
Ayın 05'si saat 19 UTC'den ayın 06'si saat 18 UTC'ye kadar geçerli Tahmin
Rüzgar güney/güneydoğudan 16 kt
Görüş mesafesi: 10 km
10000 ft yükseklikte az bulutlu
25000 ft yükseklikte az bulutlu

TAF: KLBB 051859Z 0519/0618 15016KT P6SM FEW100 FEW250

4.000'den fazla havaalanı için hava durumu gözlemleri ve tahminleri (METAR ve TAF raporları).

Kullanılabilir istasyonlar harita üzerinde sarı ve kırmızı noktalarla gösterilir.

İstasyonun adını görmek için fareyi noktanın üzerinde gezdirin.

Sonrasında hava gözlem ve tahminlerini görmek için tıklayın.

Haritayı değiştirmek için: yaklaştırmak için siyah artı işaretli yeşil düğmeye ve uzaklaştırmak için de eksi işaretli düğmeye hızla tıklayın; bitişik haritalar için yeşil okları kullanın.


METAR-TAF: